Time;durP1;ratioP1;P1;durP2;ratioP2;P2;SDS_P1;SDS_P2;PMS_P1;PMS_P2;Temp;Humidity;BMP_temperature;BMP_pressure;BME280_temperature;BME280_humidity;BME280_pressure;Samples;Min_cycle;Max_cycle;Signal;HPM_P1;HPM_P2
2021/03/31 00:00:34;;;;;;;5.03;2.72;;;12.20;49.50;;;;;;6270505;22;20043;-79
2021/03/31 00:03:03;;;;;;;4.68;2.30;;;12.00;49.70;;;;;;6247138;23;20027;-79
2021/03/31 00:05:29;;;;;;;5.03;2.53;;;11.90;50.00;;;;;;6245487;23;20027;-79
2021/03/31 00:07:55;;;;;;;5.97;2.70;;;11.90;50.40;;;;;;6246287;23;20426;-78
2021/03/31 00:10:35;;;;;;;10.40;2.45;;;11.90;51.00;;;;;;6245462;23;20006;-78
2021/03/31 00:13:01;;;;;;;3.88;2.13;;;11.80;51.70;;;;;;6245960;23;20004;-79
2021/03/31 00:15:26;;;;;;;6.03;2.50;;;11.80;52.70;;;;;;6245436;23;20004;-78
2021/03/31 00:17:52;;;;;;;7.78;2.78;;;11.80;52.60;;;;;;6245903;23;20331;-79
2021/03/31 00:20:18;;;;;;;5.32;2.28;;;11.80;52.30;;;;;;6247212;23;20043;-78
2021/03/31 00:22:44;;;;;;;7.47;2.67;;;11.80;52.50;;;;;;6270690;22;20334;-78
2021/03/31 00:25:12;;;;;;;6.75;2.63;;;11.80;52.30;;;;;;6245988;23;19992;-79
2021/03/31 00:27:38;;;;;;;5.93;2.80;;;11.70;52.20;;;;;;6246457;23;19992;-78
2021/03/31 00:30:07;;;;;;;3.55;2.40;;;11.70;51.30;;;;;;6247120;23;20078;-79
2021/03/31 00:32:33;;;;;;;5.00;2.70;;;11.60;51.20;;;;;;6246386;23;20019;-78
2021/03/31 00:34:58;;;;;;;6.35;2.58;;;11.70;52.40;;;;;;6270792;22;20423;-77
2021/03/31 00:37:24;;;;;;;7.68;2.50;;;11.60;52.10;;;;;;6244630;23;20023;-78
2021/03/31 00:39:49;;;;;;;5.85;2.45;;;11.60;52.10;;;;;;6246517;23;20098;-78
2021/03/31 00:42:15;;;;;;;8.88;2.50;;;11.60;51.60;;;;;;6271182;22;20374;-80
2021/03/31 00:44:41;;;;;;;5.10;3.03;;;11.50;52.00;;;;;;6246533;23;20629;-80
2021/03/31 00:47:06;;;;;;;7.93;2.53;;;11.50;53.00;;;;;;6245615;23;20003;-80
2021/03/31 00:49:32;;;;;;;4.13;2.45;;;11.40;52.10;;;;;;6245131;23;20062;-80
2021/03/31 00:51:59;;;;;;;7.00;2.70;;;11.40;51.30;;;;;;6245605;23;20051;-80
2021/03/31 00:54:25;;;;;;;3.78;2.15;;;11.40;51.80;;;;;;6246565;23;19992;-79
2021/03/31 00:56:51;;;;;;;4.88;2.53;;;11.30;51.10;;;;;;6245575;23;19996;-78
2021/03/31 00:59:16;;;;;;;4.47;2.65;;;11.40;50.50;;;;;;6245226;23;20076;-79
2021/03/31 01:01:44;;;;;;;3.90;2.25;;;11.50;51.50;;;;;;6244345;23;20008;-79
2021/03/31 01:04:09;;;;;;;4.40;2.85;;;11.40;52.00;;;;;;6245514;23;20007;-78
2021/03/31 01:06:35;;;;;;;3.85;2.30;;;11.40;52.00;;;;;;6245805;23;20047;-78
2021/03/31 01:09:01;;;;;;;4.00;2.83;;;11.30;52.00;;;;;;6245498;23;20055;-78
2021/03/31 01:11:52;;;;;;;7.07;2.55;;;11.20;53.10;;;;;;6244701;23;20004;-78
2021/03/31 01:14:25;;;;;;;4.43;2.30;;;11.20;54.70;;;;;;6247346;23;20000;-78
2021/03/31 01:16:54;;;;;;;6.25;2.65;;;11.00;54.80;;;;;;6246575;23;19992;-78
2021/03/31 01:19:56;;;;;;;6.05;2.30;;;10.90;54.90;;;;;;6246138;23;20012;-78
2021/03/31 01:22:28;;;;;;;3.80;2.38;;;10.80;55.50;;;;;;6246780;23;20003;-78
2021/03/31 01:25:33;;;;;;;3.80;2.38;;;10.80;55.80;;;;;;6246684;23;20019;-78
2021/03/31 01:28:32;;;;;;;4.78;2.55;;;10.80;55.90;;;;;;6220016;23;20000;-77
2021/03/31 01:30:58;;;;;;;5.25;2.30;;;10.80;55.30;;;;;;6220084;23;20027;-77
2021/03/31 01:33:51;;;;;;;5.28;2.90;;;10.70;55.00;;;;;;6245960;23;19995;-76
2021/03/31 01:36:18;;;;;;;5.03;2.72;;;10.70;54.60;;;;;;6219901;23;20004;-77
2021/03/31 01:38:51;;;;;;;6.05;2.58;;;10.60;55.40;;;;;;6218903;23;20000;-77
2021/03/31 01:41:18;;;;;;;3.28;2.13;;;10.60;55.10;;;;;;6219433;23;20004;-76
2021/03/31 01:43:54;;;;;;;7.20;2.30;;;10.60;54.40;;;;;;6219058;23;20034;-78
2021/03/31 01:46:24;;;;;;;4.60;2.65;;;10.60;54.70;;;;;;6246345;23;19996;-79
2021/03/31 01:48:51;;;;;;;3.70;2.28;;;10.60;55.30;;;;;;6246043;23;20011;-79
2021/03/31 01:51:18;;;;;;;4.93;2.30;;;10.60;55.20;;;;;;6246592;23;19992;-79
2021/03/31 01:53:45;;;;;;;7.32;3.20;;;10.60;54.90;;;;;;6219035;23;20004;-78
2021/03/31 01:56:12;;;;;;;4.03;2.40;;;10.70;55.30;;;;;;6219580;23;20079;-78
2021/03/31 01:58:39;;;;;;;5.43;2.40;;;10.70;55.30;;;;;;6219078;23;20311;-78
2021/03/31 02:01:07;;;;;;;3.47;2.58;;;10.70;55.50;;;;;;6219370;23;20306;-78
2021/03/31 02:03:36;;;;;;;4.82;2.58;;;10.70;55.30;;;;;;6218847;23;20004;-77
2021/03/31 02:06:03;;;;;;;7.00;2.63;;;10.70;55.30;;;;;;6219215;23;20007;-77
2021/03/31 02:08:29;;;;;;;4.57;2.28;;;10.70;55.40;;;;;;6244808;23;20423;-78
2021/03/31 02:10:55;;;;;;;5.10;2.75;;;10.60;55.60;;;;;;6218639;23;20000;-76
2021/03/31 02:13:22;;;;;;;6.47;2.45;;;10.50;56.00;;;;;;6218763;23;20012;-76
2021/03/31 02:15:50;;;;;;;4.35;2.63;;;10.50;56.30;;;;;;6218332;23;20008;-76
2021/03/31 02:18:18;;;;;;;4.45;2.35;;;10.30;56.80;;;;;;6250239;22;20303;-76
2021/03/31 02:20:46;;;;;;;7.03;2.33;;;10.10;56.90;;;;;;6268971;22;20012;-76
2021/03/31 02:23:13;;;;;;;9.27;2.70;;;10.10;56.80;;;;;;6246193;22;20000;-79
2021/03/31 02:25:40;;;;;;;5.65;2.70;;;10.00;56.90;;;;;;6245782;22;19995;-78
2021/03/31 02:28:05;;;;;;;7.70;2.80;;;10.00;56.70;;;;;;6246272;22;20403;-77
2021/03/31 02:30:31;;;;;;;3.40;2.42;;;9.90;57.30;;;;;;6245220;22;19996;-77
2021/03/31 02:33:02;;;;;;;5.88;2.45;;;9.90;57.80;;;;;;6244545;23;19996;-77
2021/03/31 02:35:30;;;;;;;3.80;2.67;;;9.90;57.90;;;;;;6243878;23;19996;-77
2021/03/31 02:38:07;;;;;;;5.25;2.47;;;9.80;58.30;;;;;;6270144;22;20000;-77
2021/03/31 02:40:34;;;;;;;6.07;2.90;;;9.80;58.90;;;;;;6243900;23;20098;-77
2021/03/31 02:43:01;;;;;;;5.57;2.50;;;9.80;57.90;;;;;;6243898;23;20069;-77
2021/03/31 02:45:28;;;;;;;5.43;3.08;;;9.70;58.40;;;;;;6244695;23;20011;-77
2021/03/31 02:47:56;;;;;;;5.43;2.83;;;9.70;59.10;;;;;;6244542;23;20470;-77
2021/03/31 02:50:24;;;;;;;4.00;2.53;;;9.60;59.20;;;;;;6270061;22;20043;-77
2021/03/31 02:52:51;;;;;;;4.93;2.65;;;9.60;59.90;;;;;;6269148;22;20087;-77
2021/03/31 02:55:20;;;;;;;5.63;2.55;;;9.50;60.20;;;;;;6244560;23;20443;-78
2021/03/31 02:57:46;;;;;;;6.82;3.13;;;9.40;60.50;;;;;;6244961;22;20000;-78
2021/03/31 03:00:13;;;;;;;6.55;2.67;;;9.30;59.70;;;;;;6244495;23;20054;-78
2021/03/31 03:02:41;;;;;;;8.55;3.38;;;9.20;59.30;;;;;;6243889;23;20007;-78
2021/03/31 03:05:08;;;;;;;8.00;3.38;;;9.20;59.70;;;;;;6244390;23;20003;-78
2021/03/31 03:07:34;;;;;;;5.70;2.85;;;9.10;59.90;;;;;;6243540;23;20003;-78
2021/03/31 03:10:01;;;;;;;7.35;2.80;;;9.20;59.90;;;;;;6244882;23;20423;-79
2021/03/31 03:12:28;;;;;;;6.47;2.97;;;9.20;60.30;;;;;;6244349;23;20004;-78
2021/03/31 03:14:55;;;;;;;5.95;2.80;;;9.20;60.80;;;;;;6243742;23;20074;-78
2021/03/31 03:17:21;;;;;;;5.72;2.83;;;9.20;60.70;;;;;;6245855;22;19992;-79
2021/03/31 03:19:47;;;;;;;10.77;3.13;;;9.10;60.20;;;;;;6270404;22;20016;-78
2021/03/31 03:22:14;;;;;;;4.88;2.40;;;9.10;60.30;;;;;;6246509;23;20074;-78
2021/03/31 03:24:43;;;;;;;4.55;3.15;;;9.10;61.00;;;;;;6247016;22;20427;-77
2021/03/31 03:27:13;;;;;;;6.50;3.17;;;9.10;61.10;;;;;;6246399;23;20007;-78
2021/03/31 03:29:42;;;;;;;6.90;2.83;;;9.10;61.80;;;;;;6247319;22;20023;-78
2021/03/31 03:32:08;;;;;;;4.47;2.70;;;9.10;61.10;;;;;;6246378;23;20003;-78
2021/03/31 03:34:34;;;;;;;5.30;3.00;;;9.00;61.40;;;;;;6246908;22;19988;-77
2021/03/31 03:37:00;;;;;;;5.30;2.90;;;9.00;61.50;;;;;;6272153;22;20003;-78
2021/03/31 03:39:25;;;;;;;7.78;3.33;;;9.20;60.80;;;;;;6247596;22;20054;-77
2021/03/31 03:41:51;;;;;;;5.13;2.63;;;9.30;61.30;;;;;;6247152;23;19992;-77
2021/03/31 03:44:17;;;;;;;4.35;2.97;;;9.30;60.80;;;;;;6247836;23;20008;-77
2021/03/31 03:46:47;;;;;;;7.32;3.90;;;9.20;60.60;;;;;;6246698;22;20042;-77
2021/03/31 03:49:13;;;;;;;5.72;2.90;;;9.20;62.10;;;;;;6271902;22;20004;-77
2021/03/31 03:51:39;;;;;;;5.97;2.90;;;9.10;61.80;;;;;;6271087;22;20011;-78
2021/03/31 03:54:09;;;;;;;4.68;2.83;;;9.00;61.80;;;;;;6247364;22;20131;-77
2021/03/31 03:56:36;;;;;;;5.25;3.03;;;8.90;62.40;;;;;;6245057;23;19997;-77
2021/03/31 03:59:20;;;;;;;3.95;2.65;;;8.90;62.20;;;;;;6247539;22;20050;-78
2021/03/31 04:01:47;;;;;;;6.72;3.22;;;8.90;62.30;;;;;;6244811;23;20004;-78
2021/03/31 04:04:12;;;;;;;4.07;2.60;;;8.90;62.00;;;;;;6245742;23;20058;-77
2021/03/31 04:06:38;;;;;;;6.05;3.13;;;8.90;63.00;;;;;;6245273;23;20075;-78
2021/03/31 04:09:04;;;;;;;4.72;3.10;;;8.70;63.50;;;;;;6246038;23;19996;-77
2021/03/31 04:11:31;;;;;;;7.18;2.97;;;8.80;63.10;;;;;;6247594;22;20004;-78
2021/03/31 04:14:01;;;;;;;4.70;2.95;;;8.70;63.30;;;;;;6246927;22;19996;-78
2021/03/31 04:16:30;;;;;;;4.20;2.70;;;8.70;62.90;;;;;;6271552;22;20015;-78
2021/03/31 04:19:02;;;;;;;8.25;3.28;;;8.70;63.10;;;;;;6244669;23;20062;-77
2021/03/31 04:21:31;;;;;;;7.30;3.40;;;8.60;63.50;;;;;;6245862;23;20323;-79
2021/03/31 04:23:58;;;;;;;4.32;2.75;;;8.60;63.30;;;;;;6244945;23;20412;-78
2021/03/31 04:26:26;;;;;;;5.03;2.55;;;8.60;63.70;;;;;;6271387;22;20088;-78
2021/03/31 04:28:53;;;;;;;8.48;3.03;;;8.50;64.20;;;;;;6246002;22;20423;-78
2021/03/31 04:31:23;;;;;;;5.60;2.75;;;8.40;64.30;;;;;;6245127;23;20004;-78
2021/03/31 04:33:53;;;;;;;8.13;2.80;;;8.40;64.50;;;;;;6244587;23;20002;-77
2021/03/31 04:36:19;;;;;;;3.88;2.78;;;8.30;65.00;;;;;;6246881;22;19992;-77
2021/03/31 04:38:49;;;;;;;7.10;2.80;;;8.30;64.90;;;;;;6244517;23;20001;-77
2021/03/31 04:41:16;;;;;;;7.10;3.00;;;8.30;64.90;;;;;;6245733;23;20000;-77
2021/03/31 04:43:43;;;;;;;5.60;2.63;;;8.20;65.00;;;;;;6269939;22;20174;-77
2021/03/31 04:46:09;;;;;;;5.63;2.72;;;8.20;64.80;;;;;;6247034;22;19997;-77
2021/03/31 04:48:36;;;;;;;6.10;2.53;;;8.20;65.10;;;;;;6245360;23;20000;-77
2021/03/31 04:51:03;;;;;;;6.05;2.80;;;8.20;65.10;;;;;;6271006;22;20058;-77
2021/03/31 04:53:29;;;;;;;8.75;2.47;;;8.30;64.50;;;;;;6270965;22;20446;-77
2021/03/31 04:55:55;;;;;;;5.15;2.40;;;8.40;64.00;;;;;;6244304;23;19992;-77
2021/03/31 04:58:21;;;;;;;6.80;2.67;;;8.40;64.10;;;;;;6245817;23;20042;-77
2021/03/31 05:00:47;;;;;;;5.75;3.00;;;8.40;64.00;;;;;;6246450;22;20004;-77
2021/03/31 05:03:13;;;;;;;5.80;2.53;;;8.40;64.10;;;;;;6245395;23;20004;-76
2021/03/31 05:05:39;;;;;;;6.03;2.83;;;8.50;64.40;;;;;;6244461;23;20004;-77
2021/03/31 05:08:05;;;;;;;5.78;2.90;;;8.40;63.90;;;;;;6245148;23;19996;-77
2021/03/31 05:10:30;;;;;;;5.45;2.65;;;8.30;64.60;;;;;;6245300;23;20031;-77
2021/03/31 05:12:56;;;;;;;5.90;3.28;;;8.30;65.70;;;;;;6246101;23;19996;-77
2021/03/31 05:15:22;;;;;;;6.68;2.95;;;8.20;66.10;;;;;;6270715;22;20008;-77
2021/03/31 05:17:47;;;;;;;6.45;2.95;;;8.20;65.80;;;;;;6244284;23;20095;-77
2021/03/31 05:20:14;;;;;;;5.53;2.83;;;8.20;65.90;;;;;;6270542;22;20091;-77
2021/03/31 05:22:40;;;;;;;7.25;3.08;;;8.10;65.80;;;;;;6245815;22;20425;-76
2021/03/31 05:25:07;;;;;;;3.25;2.67;;;8.20;65.00;;;;;;6244871;23;20083;-76
2021/03/31 05:27:34;;;;;;;9.50;2.83;;;8.10;65.00;;;;;;6246483;22;19999;-76
2021/03/31 05:30:01;;;;;;;6.88;2.92;;;8.20;65.00;;;;;;6245684;22;20031;-76
2021/03/31 05:32:26;;;;;;;8.38;2.88;;;8.20;65.00;;;;;;6246472;22;20050;-77
2021/03/31 05:34:52;;;;;;;6.10;2.65;;;8.20;65.30;;;;;;6244192;23;20007;-76
2021/03/31 05:37:18;;;;;;;7.28;3.38;;;8.20;65.80;;;;;;6246170;23;19999;-76
2021/03/31 05:39:43;;;;;;;7.72;3.10;;;8.10;66.00;;;;;;6244320;23;20004;-77
2021/03/31 05:42:10;;;;;;;8.50;2.85;;;8.10;66.50;;;;;;6244555;23;20075;-77
2021/03/31 05:44:37;;;;;;;8.98;3.08;;;8.10;66.40;;;;;;6270408;22;20008;-77
2021/03/31 05:47:05;;;;;;;6.60;2.90;;;8.10;66.40;;;;;;6245684;22;20014;-78
2021/03/31 05:49:31;;;;;;;5.30;2.95;;;8.10;66.70;;;;;;6246868;22;19996;-78
2021/03/31 05:51:57;;;;;;;7.32;3.38;;;8.10;66.80;;;;;;6244660;23;20022;-78
2021/03/31 05:54:24;;;;;;;7.10;2.97;;;8.00;67.70;;;;;;6270607;22;20086;-79
2021/03/31 05:56:52;;;;;;;5.07;2.92;;;8.00;68.50;;;;;;6244082;23;20003;-78
2021/03/31 05:59:18;;;;;;;5.68;2.97;;;8.00;67.70;;;;;;6245167;23;20439;-78
2021/03/31 06:01:44;;;;;;;8.82;3.08;;;8.10;67.40;;;;;;6244410;23;20039;-78
2021/03/31 06:04:10;;;;;;;5.50;2.95;;;8.10;67.70;;;;;;6244600;23;19992;-76
2021/03/31 06:06:36;;;;;;;11.55;3.33;;;8.20;67.00;;;;;;6246356;22;20023;-76
2021/03/31 06:09:09;;;;;;;8.32;3.25;;;8.40;66.80;;;;;;6269187;22;20004;-76
2021/03/31 06:11:53;;;;;;;11.88;4.22;;;8.40;66.50;;;;;;6244419;23;20008;-76
2021/03/31 06:14:35;;;;;;;11.68;3.25;;;8.40;66.10;;;;;;6246457;22;20042;-76
2021/03/31 06:17:12;;;;;;;11.35;3.88;;;8.40;66.70;;;;;;6245377;22;19996;-76
2021/03/31 06:19:40;;;;;;;9.10;3.33;;;8.40;66.70;;;;;;6244406;23;20292;-78
2021/03/31 06:24:45;;;;;;;10.05;3.50;;;8.40;67.80;;;;;;6246121;23;20419;-77
2021/03/31 06:27:12;;;;;;;8.00;3.40;;;8.40;67.90;;;;;;6270110;22;20000;-77
2021/03/31 06:29:43;;;;;;;8.70;2.60;;;8.40;67.90;;;;;;6246119;22;20063;-77
2021/03/31 06:32:18;;;;;;;5.28;2.80;;;8.40;68.20;;;;;;6244997;23;20011;-79
2021/03/31 06:34:56;;;;;;;8.68;3.00;;;8.50;68.00;;;;;;6269713;22;19996;-77
2021/03/31 06:37:30;;;;;;;7.20;2.78;;;8.60;67.70;;;;;;6244752;23;20031;-77
2021/03/31 06:39:56;;;;;;;12.55;2.80;;;8.70;67.80;;;;;;6243715;23;20007;-78
2021/03/31 06:42:38;;;;;;;8.10;3.25;;;8.80;67.90;;;;;;6245433;22;20012;-78
2021/03/31 06:45:15;;;;;;;6.35;2.90;;;8.90;67.60;;;;;;6245347;22;20007;-77
2021/03/31 06:48:00;;;;;;;8.65;2.50;;;8.90;67.10;;;;;;6245995;22;20053;-77
2021/03/31 06:50:26;;;;;;;7.97;2.78;;;9.00;66.90;;;;;;6244408;23;20000;-78
2021/03/31 06:52:56;;;;;;;7.00;3.20;;;9.10;67.00;;;;;;6242222;23;20467;-77
2021/03/31 06:55:23;;;;;;;7.25;2.78;;;9.10;67.70;;;;;;6217734;23;20000;-77
2021/03/31 06:57:53;;;;;;;7.85;2.53;;;9.30;66.90;;;;;;6217206;23;20078;-78
2021/03/31 07:00:30;;;;;;;5.30;2.63;;;9.30;66.60;;;;;;6242983;23;20467;-77
2021/03/31 07:03:02;;;;;;;4.85;2.55;;;9.40;66.30;;;;;;6242665;23;20008;-77
2021/03/31 07:05:29;;;;;;;5.85;2.95;;;9.50;65.70;;;;;;6243255;23;20030;-77
2021/03/31 07:08:05;;;;;;;8.35;3.00;;;9.60;65.60;;;;;;6242392;23;20104;-77
2021/03/31 07:10:46;;;;;;;6.75;2.50;;;9.70;65.50;;;;;;6243160;23;20423;-77
2021/03/31 07:13:31;;;;;;;5.18;2.38;;;9.80;65.10;;;;;;6243001;23;20004;-78
2021/03/31 07:15:58;;;;;;;5.90;2.88;;;9.90;65.20;;;;;;6242475;23;20044;-78
2021/03/31 07:18:25;;;;;;;6.80;2.95;;;10.00;65.20;;;;;;6217689;23;20009;-77
2021/03/31 07:20:51;;;;;;;6.22;2.78;;;10.10;65.90;;;;;;6242315;23;20051;-77
2021/03/31 07:23:21;;;;;;;9.23;2.97;;;10.20;66.10;;;;;;6221135;23;20031;-77
2021/03/31 07:25:54;;;;;;;7.97;3.60;;;10.30;65.50;;;;;;6245322;22;19992;-77
2021/03/31 07:28:30;;;;;;;8.60;3.60;;;10.50;65.20;;;;;;6244372;23;20307;-77
2021/03/31 07:30:57;;;;;;;7.70;3.25;;;10.60;65.30;;;;;;6245215;22;19996;-77
2021/03/31 07:33:31;;;;;;;7.05;3.40;;;10.80;65.00;;;;;;6269728;22;20079;-78
2021/03/31 07:35:57;;;;;;;7.00;3.50;;;11.00;64.50;;;;;;6243653;23;20310;-77
2021/03/31 07:38:26;;;;;;;9.30;4.05;;;11.10;64.10;;;;;;6244528;23;20008;-77
2021/03/31 07:40:52;;;;;;;6.40;3.40;;;11.30;62.90;;;;;;6268932;22;20000;-77
2021/03/31 07:43:36;;;;;;;6.70;3.40;;;11.50;62.00;;;;;;6245285;22;20037;-77
2021/03/31 07:46:06;;;;;;;7.82;4.05;;;11.60;61.70;;;;;;6243263;23;20004;-77
2021/03/31 07:48:32;;;;;;;6.65;3.88;;;11.80;60.80;;;;;;6244092;23;20008;-78
2021/03/31 07:51:27;;;;;;;8.40;3.67;;;11.80;60.50;;;;;;6244719;22;19992;-77
2021/03/31 07:53:54;;;;;;;7.32;3.60;;;11.90;60.50;;;;;;6243417;23;20116;-77
2021/03/31 07:56:24;;;;;;;7.30;3.67;;;12.00;60.30;;;;;;6243111;23;20028;-78
2021/03/31 07:59:09;;;;;;;6.93;3.55;;;12.00;59.80;;;;;;6269025;22;20011;-78
2021/03/31 08:02:00;;;;;;;12.80;3.97;;;12.10;59.50;;;;;;6244362;23;20014;-76
2021/03/31 08:04:26;;;;;;;11.65;3.67;;;12.20;59.10;;;;;;6243463;23;20296;-78
2021/03/31 08:06:56;;;;;;;7.95;3.50;;;12.30;59.20;;;;;;6246627;22;20114;-78
2021/03/31 08:09:32;;;;;;;8.10;4.03;;;12.40;59.00;;;;;;6271312;22;20000;-77
2021/03/31 08:12:03;;;;;;;7.40;3.70;;;12.40;58.60;;;;;;6244900;23;20007;-77
2021/03/31 08:14:34;;;;;;;8.47;3.73;;;12.40;59.30;;;;;;6245845;23;20427;-77
2021/03/31 08:17:05;;;;;;;7.95;3.42;;;12.50;58.50;;;;;;6245408;23;20075;-78
2021/03/31 08:19:33;;;;;;;7.10;3.63;;;12.60;59.10;;;;;;6245657;23;20016;-78
2021/03/31 08:22:24;;;;;;;11.65;4.32;;;12.60;59.40;;;;;;6270696;22;20672;-77
2021/03/31 08:24:56;;;;;;;7.82;3.88;;;12.70;58.20;;;;;;6245406;23;20000;-77
2021/03/31 08:27:22;;;;;;;18.25;4.25;;;12.70;58.10;;;;;;6246837;22;19996;-77
2021/03/31 08:29:52;;;;;;;10.77;4.18;;;12.80;57.90;;;;;;6245530;23;20485;-78
2021/03/31 08:32:19;;;;;;;13.45;4.50;;;12.90;57.80;;;;;;6247314;22;20084;-78
2021/03/31 08:34:45;;;;;;;7.57;4.03;;;12.90;57.70;;;;;;6245619;23;20000;-78
2021/03/31 08:37:27;;;;;;;8.98;3.80;;;13.00;57.90;;;;;;6245141;23;20026;-82
2021/03/31 08:39:57;;;;;;;8.35;3.75;;;13.00;58.20;;;;;;6245682;23;20015;-79
2021/03/31 08:42:23;;;;;;;12.43;4.05;;;13.10;58.30;;;;;;6247300;22;20011;-79
2021/03/31 08:44:57;;;;;;;13.75;4.28;;;13.10;58.20;;;;;;6247540;22;20000;-79
2021/03/31 08:47:26;;;;;;;13.07;4.25;;;13.10;58.00;;;;;;6244779;23;20000;-78
2021/03/31 08:50:06;;;;;;;9.00;3.83;;;13.20;57.60;;;;;;6243586;22;20079;-77
2021/03/31 08:52:38;;;;;;;5.97;3.60;;;13.20;58.20;;;;;;6270500;22;20481;-78
2021/03/31 08:55:11;;;;;;;7.00;3.70;;;13.10;58.30;;;;;;6270102;22;20501;-76
2021/03/31 08:57:37;;;;;;;9.60;3.95;;;13.20;59.00;;;;;;6245074;23;20079;-76
2021/03/31 09:00:07;;;;;;;7.55;3.85;;;13.20;59.00;;;;;;6245734;22;20011;-77
2021/03/31 09:02:36;;;;;;;9.15;3.33;;;13.20;58.70;;;;;;6244904;23;20008;-77
2021/03/31 09:05:04;;;;;;;13.10;3.97;;;13.20;58.60;;;;;;6269779;22;20042;-76
2021/03/31 09:07:29;;;;;;;6.05;3.65;;;13.20;58.60;;;;;;6245174;23;19996;-76
2021/03/31 09:09:55;;;;;;;9.27;3.40;;;13.20;58.80;;;;;;6244285;23;20319;-76
2021/03/31 09:12:24;;;;;;;6.63;3.13;;;13.20;58.70;;;;;;6244322;23;20035;-75
2021/03/31 09:14:52;;;;;;;8.73;3.80;;;13.20;58.70;;;;;;6244784;23;20004;-76
2021/03/31 09:17:21;;;;;;;7.65;3.47;;;13.20;58.60;;;;;;6244514;23;20414;-76
2021/03/31 09:19:49;;;;;;;8.30;4.10;;;13.30;58.30;;;;;;6244506;23;20039;-76
2021/03/31 09:22:17;;;;;;;9.02;3.40;;;13.50;58.10;;;;;;6244832;23;20000;-77
2021/03/31 09:24:52;;;;;;;7.93;3.25;;;13.70;55.90;;;;;;6244880;23;20023;-76
2021/03/31 09:27:21;;;;;;;7.00;3.25;;;13.90;55.50;;;;;;6246756;22;20024;-78
2021/03/31 09:29:48;;;;;;;6.35;2.92;;;14.10;54.70;;;;;;6246692;22;20429;-76
2021/03/31 09:32:23;;;;;;;7.78;3.55;;;14.30;54.20;;;;;;6244569;23;20058;-76
2021/03/31 09:34:48;;;;;;;6.88;3.70;;;14.40;54.10;;;;;;6246325;22;19992;-77
2021/03/31 09:37:16;;;;;;;8.77;3.63;;;14.40;53.90;;;;;;6244049;23;20007;-78
2021/03/31 09:39:54;;;;;;;7.78;3.90;;;14.50;53.70;;;;;;6245307;23;20115;-80
2021/03/31 09:42:23;;;;;;;8.32;3.92;;;14.60;54.10;;;;;;6271656;22;20003;-79
2021/03/31 09:44:51;;;;;;;6.43;3.13;;;14.80;53.40;;;;;;6270637;22;20054;-79
2021/03/31 09:47:19;;;;;;;13.40;3.95;;;14.90;52.40;;;;;;6245403;22;19996;-77
2021/03/31 09:49:47;;;;;;;8.65;4.28;;;15.00;52.00;;;;;;6245335;23;20054;-77
2021/03/31 09:52:13;;;;;;;9.68;3.22;;;15.10;51.70;;;;;;6245223;22;20027;-78
2021/03/31 09:54:46;;;;;;;12.85;3.65;;;15.10;52.40;;;;;;6246204;22;20399;-77
2021/03/31 09:57:14;;;;;;;7.88;3.33;;;15.10;52.50;;;;;;6243080;23;20169;-76
2021/03/31 09:59:41;;;;;;;7.45;3.85;;;15.30;52.00;;;;;;6244259;23;20019;-78
2021/03/31 10:02:12;;;;;;;8.80;3.58;;;15.40;52.10;;;;;;6245460;22;19997;-76
2021/03/31 10:04:40;;;;;;;8.90;3.55;;;15.40;51.60;;;;;;6245806;22;20170;-77
2021/03/31 10:07:26;;;;;;;9.27;3.60;;;15.60;51.40;;;;;;6243777;23;20423;-77
2021/03/31 10:09:52;;;;;;;7.18;3.25;;;15.70;50.70;;;;;;6244783;22;20074;-77
2021/03/31 10:12:22;;;;;;;9.55;3.40;;;15.70;50.20;;;;;;6245409;22;20396;-76
2021/03/31 10:14:53;;;;;;;6.68;3.15;;;15.80;50.30;;;;;;6244825;23;20004;-78
2021/03/31 10:17:21;;;;;;;9.55;3.50;;;15.90;51.40;;;;;;6246122;22;20015;-78
2021/03/31 10:19:47;;;;;;;10.23;3.45;;;16.00;49.90;;;;;;6244318;23;20023;-77
2021/03/31 10:22:14;;;;;;;8.68;3.10;;;16.00;49.60;;;;;;6245580;23;20025;-77
2021/03/31 10:24:42;;;;;;;9.70;3.38;;;16.20;49.00;;;;;;6244258;23;20069;-78
2021/03/31 10:27:10;;;;;;;10.02;3.70;;;16.20;49.20;;;;;;6244254;23;20000;-75
2021/03/31 10:29:43;;;;;;;8.05;3.50;;;16.30;48.70;;;;;;6244271;23;20114;-76
2021/03/31 10:32:09;;;;;;;9.05;3.53;;;16.40;49.00;;;;;;6245254;23;20071;-75
2021/03/31 10:34:43;;;;;;;9.40;3.67;;;16.30;49.30;;;;;;6269483;22;20035;-76
2021/03/31 10:48:33;;;;;;;15.02;3.67;;;16.70;48.50;;;;;;6246147;23;20048;-76
2021/03/31 10:53:35;;;;;;;8.23;4.13;;;17.00;47.90;;;;;;6184485;22;20441;-77
2021/03/31 10:56:03;;;;;;;8.75;3.88;;;17.10;48.00;;;;;;6244039;23;20004;-79
2021/03/31 10:58:29;;;;;;;8.80;4.68;;;17.20;47.20;;;;;;6246410;22;19992;-76
2021/03/31 11:00:55;;;;;;;8.73;3.72;;;17.30;47.40;;;;;;6243234;23;20008;-77
2021/03/31 11:03:25;;;;;;;13.02;4.38;;;17.40;46.80;;;;;;6242954;23;20016;-76
2021/03/31 11:05:53;;;;;;;8.18;4.07;;;17.40;46.60;;;;;;6268749;22;20016;-77
2021/03/31 11:08:19;;;;;;;8.43;3.97;;;17.30;47.60;;;;;;6242379;23;20008;-77
2021/03/31 11:10:45;;;;;;;12.05;4.50;;;17.40;46.80;;;;;;6244693;23;20431;-77
2021/03/31 11:13:11;;;;;;;9.57;4.38;;;17.50;46.60;;;;;;6268061;22;20010;-78
2021/03/31 11:15:38;;;;;;;11.75;4.75;;;17.70;46.70;;;;;;6244083;23;20096;-78
2021/03/31 11:26:24;;;;;;;9.48;4.43;;;18.00;45.50;;;;;;6245405;23;20023;-79
2021/03/31 11:28:50;;;;;;;10.40;4.80;;;18.10;45.20;;;;;;6270533;22;20087;-78
2021/03/31 11:31:15;;;;;;;11.55;5.55;;;18.10;45.40;;;;;;6244608;23;20250;-79
2021/03/31 11:33:41;;;;;;;10.30;4.35;;;18.20;44.80;;;;;;6269466;22;20004;-78
2021/03/31 11:36:07;;;;;;;11.98;5.00;;;18.30;45.70;;;;;;6244533;22;20004;-78
2021/03/31 11:38:33;;;;;;;11.43;4.82;;;18.40;44.20;;;;;;6269536;22;20012;-78
2021/03/31 11:40:59;;;;;;;11.90;4.40;;;18.50;44.00;;;;;;6245149;23;20004;-79
2021/03/31 11:43:24;;;;;;;11.98;4.50;;;18.50;44.40;;;;;;6248003;23;20453;-79
2021/03/31 11:45:51;;;;;;;8.80;4.25;;;18.50;43.50;;;;;;6245880;23;20038;-78
2021/03/31 11:48:18;;;;;;;11.73;4.55;;;18.60;43.80;;;;;;6246788;23;20220;-78
2021/03/31 11:50:44;;;;;;;10.88;4.30;;;18.70;43.30;;;;;;6245466;23;20012;-78
2021/03/31 11:53:10;;;;;;;10.27;4.45;;;18.70;42.60;;;;;;6245225;23;20084;-79
2021/03/31 11:55:36;;;;;;;9.75;4.38;;;18.80;42.40;;;;;;6245755;23;20020;-79
2021/03/31 11:58:03;;;;;;;9.77;3.92;;;19.00;42.10;;;;;;6245502;23;20005;-79
2021/03/31 12:00:29;;;;;;;14.90;4.70;;;19.00;43.00;;;;;;6247396;23;20099;-80
2021/03/31 12:02:54;;;;;;;11.70;4.47;;;19.10;41.50;;;;;;6245934;23;20023;-80
2021/03/31 12:05:20;;;;;;;10.65;4.38;;;19.30;41.40;;;;;;6246384;23;20299;-79
2021/03/31 12:07:46;;;;;;;12.32;4.18;;;19.50;41.90;;;;;;6245681;23;20001;-78
2021/03/31 12:10:13;;;;;;;7.70;3.42;;;19.50;41.80;;;;;;6270176;22;20019;-77
2021/03/31 12:12:40;;;;;;;9.18;3.35;;;19.60;42.20;;;;;;6245411;23;19997;-80
2021/03/31 12:15:12;;;;;;;8.40;3.28;;;19.80;39.30;;;;;;6244962;23;20016;-79
2021/03/31 12:17:39;;;;;;;5.75;3.13;;;20.10;38.70;;;;;;6243235;23;20000;-78
2021/03/31 12:20:10;;;;;;;7.63;2.95;;;20.00;38.40;;;;;;6244653;23;20004;-78
2021/03/31 12:22:36;;;;;;;6.95;2.50;;;20.00;39.60;;;;;;6246870;23;20079;-77
2021/03/31 12:25:03;;;;;;;4.53;2.30;;;20.00;38.00;;;;;;6244562;23;20035;-78
2021/03/31 12:27:31;;;;;;;6.95;2.63;;;20.20;37.90;;;;;;6245240;23;20000;-78
2021/03/31 12:29:56;;;;;;;7.00;2.38;;;20.40;37.40;;;;;;6245367;23;20015;-77
2021/03/31 12:32:22;;;;;;;5.68;2.40;;;20.50;37.50;;;;;;6246031;23;20024;-77
2021/03/31 12:34:48;;;;;;;7.32;3.03;;;20.70;37.60;;;;;;6244223;23;20420;-79
2021/03/31 12:37:14;;;;;;;7.25;2.45;;;21.00;37.80;;;;;;6244209;23;20000;-77
2021/03/31 12:39:40;;;;;;;6.32;2.88;;;21.30;37.40;;;;;;6270524;22;20035;-78
2021/03/31 12:42:06;;;;;;;8.00;2.65;;;21.60;34.80;;;;;;6245870;23;20008;-75
2021/03/31 12:44:32;;;;;;;6.32;2.85;;;21.80;35.10;;;;;;6245414;23;20010;-76
2021/03/31 12:46:58;;;;;;;5.53;2.42;;;21.90;34.40;;;;;;6244969;23;20004;-78
2021/03/31 12:49:24;;;;;;;5.70;2.67;;;22.10;33.20;;;;;;6244331;23;20031;-76
2021/03/31 12:52:04;;;;;;;7.28;3.13;;;22.30;32.70;;;;;;6245818;23;20004;-77
2021/03/31 12:54:46;;;;;;;13.32;3.05;;;22.50;32.30;;;;;;6270748;22;20007;-79
2021/03/31 12:57:11;;;;;;;7.07;3.40;;;22.80;33.10;;;;;;6244568;23;20010;-78
2021/03/31 12:59:37;;;;;;;7.13;2.78;;;23.00;32.40;;;;;;6269866;22;20032;-79
2021/03/31 13:02:03;;;;;;;5.10;2.88;;;23.40;31.30;;;;;;6269332;22;20012;-75
2021/03/31 13:04:28;;;;;;;7.28;2.92;;;23.60;31.90;;;;;;6245474;23;19997;-74
2021/03/31 13:06:54;;;;;;;6.53;2.65;;;23.80;31.20;;;;;;6269554;22;20143;-75
2021/03/31 13:09:20;;;;;;;5.82;2.53;;;24.00;30.40;;;;;;6245539;23;20496;-75
2021/03/31 13:11:46;;;;;;;9.18;2.90;;;24.30;29.80;;;;;;6246376;23;20000;-74
2021/03/31 13:17:03;;;;;;;9.75;3.78;;;25.10;29.80;;;;;;6246103;23;20019;-76
2021/03/31 13:22:21;;;;;;;6.85;2.85;;;26.30;30.00;;;;;;6246185;23;20015;-77
2021/03/31 13:25:24;;;;;;;5.88;2.78;;;26.80;28.00;;;;;;6246074;23;20000;-77
2021/03/31 13:28:04;;;;;;;5.53;2.45;;;27.20;28.50;;;;;;6239580;23;20031;-79
2021/03/31 13:30:45;;;;;;;5.28;2.10;;;27.80;27.70;;;;;;6245247;23;20016;-78